Kezdőlap
METAR-TAF:

METAR-TAF

Repülőterek :

El Bayadh, Algéria

földrajzi szélesség: 33-43-15N, földrajzi hosszúság: 1-05-29E, magasság: 1366 m

Jelenlegi meteorológiai megfigyelések

A jelentés 1 órával és 10 perccel ezelõtt készült, 18:00 UTC
Északnyugati szél 7 kt
Hőmérséklet 28°C
Páratartalom 19%
Légköri nyomás 1019 hPa
Látótávolság 10 km, vagy több
Kevés felhő 2600 lábon

METAR: DAOY 291800Z 31007KT 9999 FEW026 28/02 Q1019

Idő: 20:10 (19:10 UTC)


TAF: hiányzik

Meteorológiai megfigyelések és előrejelzések több, mint 4000 repülőtéren (METAR és TAF jelentéseket).

A térképen piros és sárga pontok jelzik az elérhető meteorológiai állomásokat.

Mozgassa az egeret a pont fölött, hogy megjelenjen az állomás neve.

Azután kattintson az időjárási megfigyelések és előrejelzések megtekintéséhez.

A térkép megváltoztatása: kattintson a fekete keresztel jelölt zöld gombra ráközelítéshez, a vonallal jelölt zöld gombra távolításhoz, vagy a zöld nyilakra a szomszédos térképek eléréséhez.


METAR-TAF: